Sharpsburg, Maryland
Current Conditions -  °F | °C
As of 4:53 AM on Friday 31 Oct 2014 (Local Time) from KMRB Reporting Station
Overcast Overcast  
Wind Chill: 45°   Ceiling: 5500
Heat Index: 45°   Visibility: 10mi
Dew Point: 38°   Wind: 3mph
Humidity: 76%   Direction: 240°WSW
Pressure: 30.01"   Gusts: NA
Location:  39.46°N, 77.75°W
Report Text: KMRB 310853Z AUTO 24003KT 10SM OVC055 07/03 A3001 RMK AO2 SLP163 T00720033 58005 TSNO
Loading
Personal Weather Stations






























Interactive Weather Map
Tropical Storm Tracking
New forecast layout! Learn more

10-Day Weather Forecast

Advertisements
Track Severe Weather on mobile